sensor_id;sensor_type;location;lat;lon;timestamp;pressure;altitude;pressure_sealevel;temperature;humidity
37368;BME280;23240;43.210;27.910;2022-08-27T00:01:31;100318.78;;;23.76;100.00
37368;BME280;23240;43.210;27.910;2022-08-27T00:03:57;100320.94;;;23.67;100.00
37368;BME280;23240;43.210;27.910;2022-08-27T00:06:22;100310.41;;;23.64;100.00
37368;BME280;23240;43.210;27.910;2022-08-27T00:08:48;100314.84;;;23.58;100.00
37368;BME280;23240;43.210;27.910;2022-08-27T00:11:14;100317.88;;;23.50;100.00
37368;BME280;23240;43.210;27.910;2022-08-27T00:13:39;100314.31;;;23.50;100.00
37368;BME280;23240;43.210;27.910;2022-08-27T00:16:06;100317.22;;;23.48;100.00
37368;BME280;23240;43.210;27.910;2022-08-27T00:18:32;100312.66;;;23.42;100.00
37368;BME280;23240;43.210;27.910;2022-08-27T00:20:59;100312.66;;;23.42;100.00
37368;BME280;23240;43.210;27.910;2022-08-27T00:23:24;100321.63;;;23.49;100.00
37368;BME280;23240;43.210;27.910;2022-08-27T00:25:50;100320.44;;;23.39;100.00
37368;BME280;23240;43.210;27.910;2022-08-27T00:28:15;100314.84;;;23.27;100.00
37368;BME280;23240;43.210;27.910;2022-08-27T00:30:40;100315.69;;;23.21;100.00
37368;BME280;23240;43.210;27.910;2022-08-27T00:33:06;100310.06;;;23.16;100.00
37368;BME280;23240;43.210;27.910;2022-08-27T00:35:31;100320.19;;;23.08;100.00
37368;BME280;23240;43.210;27.910;2022-08-27T00:37:58;100319.59;;;23.06;100.00
37368;BME280;23240;43.210;27.910;2022-08-27T00:40:24;100322.75;;;23.03;100.00
37368;BME280;23240;43.210;27.910;2022-08-27T00:42:49;100323.38;;;22.99;100.00
37368;BME280;23240;43.210;27.910;2022-08-27T00:45:15;100321.50;;;22.99;100.00
37368;BME280;23240;43.210;27.910;2022-08-27T00:47:46;100319.38;;;23.01;100.00
37368;BME280;23240;43.210;27.910;2022-08-27T00:50:13;100322.56;;;22.98;100.00
37368;BME280;23240;43.210;27.910;2022-08-27T00:55:09;100320.66;;;22.99;100.00
37368;BME280;23240;43.210;27.910;2022-08-27T00:57:37;100327.19;;;22.98;100.00
37368;BME280;23240;43.210;27.910;2022-08-27T01:00:07;100324.63;;;23.03;100.00
37368;BME280;23240;43.210;27.910;2022-08-27T01:02:33;100327.38;;;23.03;100.00
37368;BME280;23240;43.210;27.910;2022-08-27T01:05:00;100326.97;;;22.99;100.00
37368;BME280;23240;43.210;27.910;2022-08-27T01:07:27;100323.38;;;22.99;100.00
37368;BME280;23240;43.210;27.910;2022-08-27T01:09:53;100330.97;;;22.97;100.00
37368;BME280;23240;43.210;27.910;2022-08-27T01:12:19;100326.53;;;23.02;100.00
37368;BME280;23240;43.210;27.910;2022-08-27T01:14:45;100324.41;;;23.04;100.00
37368;BME280;23240;43.210;27.910;2022-08-27T01:17:11;100336.41;;;23.03;100.00
37368;BME280;23240;43.210;27.910;2022-08-27T01:19:40;100330.72;;;23.05;100.00
37368;BME280;23240;43.210;27.910;2022-08-27T01:24:45;100333.47;;;22.98;100.00
37368;BME280;23240;43.210;27.910;2022-08-27T01:27:12;100331.16;;;23.02;100.00
37368;BME280;23240;43.210;27.910;2022-08-27T01:29:38;100333.91;;;22.95;100.00
37368;BME280;23240;43.210;27.910;2022-08-27T01:32:08;100331.63;;;22.92;100.00
37368;BME280;23240;43.210;27.910;2022-08-27T01:34:35;100337.88;;;22.86;100.00
37368;BME280;23240;43.210;27.910;2022-08-27T01:37:00;100334.78;;;22.76;100.00
37368;BME280;23240;43.210;27.910;2022-08-27T01:39:26;100337.50;;;22.76;100.00
37368;BME280;23240;43.210;27.910;2022-08-27T01:41:51;100334.13;;;22.80;100.00
37368;BME280;23240;43.210;27.910;2022-08-27T01:44:16;100343.81;;;22.83;100.00
37368;BME280;23240;43.210;27.910;2022-08-27T01:46:42;100337.50;;;22.76;100.00
37368;BME280;23240;43.210;27.910;2022-08-27T01:49:08;100342.34;;;22.74;100.00
37368;BME280;23240;43.210;27.910;2022-08-27T01:51:33;100340.88;;;22.71;100.00
37368;BME280;23240;43.210;27.910;2022-08-27T01:53:59;100336.91;;;22.74;100.00
37368;BME280;23240;43.210;27.910;2022-08-27T01:56:24;100337.50;;;22.76;100.00
37368;BME280;23240;43.210;27.910;2022-08-27T01:58:49;100336.25;;;22.78;100.00
37368;BME280;23240;43.210;27.910;2022-08-27T02:01:15;100341.25;;;22.81;100.00
37368;BME280;23240;43.210;27.910;2022-08-27T02:03:40;100334.78;;;22.82;100.00
37368;BME280;23240;43.210;27.910;2022-08-27T02:06:07;100341.06;;;22.83;100.00
37368;BME280;23240;43.210;27.910;2022-08-27T02:08:33;100334.13;;;22.80;100.00
37368;BME280;23240;43.210;27.910;2022-08-27T02:10:59;100337.88;;;22.86;100.00
37368;BME280;23240;43.210;27.910;2022-08-27T02:13:25;100338.72;;;22.87;100.00
37368;BME280;23240;43.210;27.910;2022-08-27T02:15:50;100340.25;;;22.82;100.00
37368;BME280;23240;43.210;27.910;2022-08-27T02:18:15;100338.75;;;22.80;100.00
37368;BME280;23240;43.210;27.910;2022-08-27T02:20:42;100336.69;;;22.75;100.00
37368;BME280;23240;43.210;27.910;2022-08-27T02:23:08;100331.63;;;22.79;100.00
37368;BME280;23240;43.210;27.910;2022-08-27T02:25:34;100330.41;;;22.68;100.00
37368;BME280;23240;43.210;27.910;2022-08-27T02:27:59;100333.34;;;22.73;100.00
37368;BME280;23240;43.210;27.910;2022-08-27T02:30:25;100332.06;;;22.69;100.00
37368;BME280;23240;43.210;27.910;2022-08-27T02:32:51;100334.81;;;22.69;100.00
37368;BME280;23240;43.210;27.910;2022-08-27T02:35:17;100339.25;;;22.64;100.00
37368;BME280;23240;43.210;27.910;2022-08-27T02:37:43;100343.41;;;22.73;100.00
37368;BME280;23240;43.210;27.910;2022-08-27T02:40:09;100342.56;;;22.72;100.00
37368;BME280;23240;43.210;27.910;2022-08-27T02:42:35;100337.75;;;22.68;100.00
37368;BME280;23240;43.210;27.910;2022-08-27T02:45:00;100337.97;;;22.66;100.00
37368;BME280;23240;43.210;27.910;2022-08-27T02:47:26;100339.84;;;22.66;100.00
37368;BME280;23240;43.210;27.910;2022-08-27T02:49:51;100348.25;;;22.64;100.00
37368;BME280;23240;43.210;27.910;2022-08-27T02:52:16;100344.69;;;22.64;100.00
37368;BME280;23240;43.210;27.910;2022-08-27T02:54:42;100344.69;;;22.64;100.00
37368;BME280;23240;43.210;27.910;2022-08-27T02:57:08;100341.97;;;22.64;100.00
37368;BME280;23240;43.210;27.910;2022-08-27T02:59:33;100343.84;;;22.70;100.00
37368;BME280;23240;43.210;27.910;2022-08-27T03:01:59;100351.19;;;22.69;100.00
37368;BME280;23240;43.210;27.910;2022-08-27T03:04:25;100345.53;;;22.64;100.00
37368;BME280;23240;43.210;27.910;2022-08-27T03:06:52;100340.06;;;22.64;100.00
37368;BME280;23240;43.210;27.910;2022-08-27T03:09:18;100343.00;;;22.63;100.00
37368;BME280;23240;43.210;27.910;2022-08-27T03:11:44;100349.50;;;22.62;100.00
37368;BME280;23240;43.210;27.910;2022-08-27T03:14:09;100348.06;;;22.59;100.00
37368;BME280;23240;43.210;27.910;2022-08-27T03:16:35;100357.72;;;22.62;100.00
37368;BME280;23240;43.210;27.910;2022-08-27T03:19:02;100360.25;;;22.56;100.00
37368;BME280;23240;43.210;27.910;2022-08-27T03:21:28;100357.72;;;22.62;100.00
37368;BME280;23240;43.210;27.910;2022-08-27T03:23:54;100358.16;;;22.58;100.00
37368;BME280;23240;43.210;27.910;2022-08-27T03:26:19;100370.75;;;22.60;100.00
37368;BME280;23240;43.210;27.910;2022-08-27T03:28:44;100362.97;;;22.56;100.00
37368;BME280;23240;43.210;27.910;2022-08-27T03:31:18;100368.22;;;22.58;100.00
37368;BME280;23240;43.210;27.910;2022-08-27T03:33:50;100368.00;;;22.60;100.00
37368;BME280;23240;43.210;27.910;2022-08-27T03:36:16;100373.28;;;22.54;100.00
37368;BME280;23240;43.210;27.910;2022-08-27T03:38:41;100375.34;;;22.52;100.00
37368;BME280;23240;43.210;27.910;2022-08-27T03:41:07;100371.59;;;22.53;100.00
37368;BME280;23240;43.210;27.910;2022-08-27T03:43:32;100376.63;;;22.56;100.00
37368;BME280;23240;43.210;27.910;2022-08-27T03:45:58;100372.00;;;22.57;100.00
37368;BME280;23240;43.210;27.910;2022-08-27T03:48:23;100378.28;;;22.57;100.00
37368;BME280;23240;43.210;27.910;2022-08-27T03:50:49;100373.66;;;22.65;100.00
37368;BME280;23240;43.210;27.910;2022-08-27T03:53:15;100371.56;;;22.67;100.00
37368;BME280;23240;43.210;27.910;2022-08-27T03:55:41;100375.34;;;22.66;100.00
37368;BME280;23240;43.210;27.910;2022-08-27T03:58:07;100368.59;;;22.75;100.00
37368;BME280;23240;43.210;27.910;2022-08-27T04:00:32;100373.84;;;22.76;100.00
37368;BME280;23240;43.210;27.910;2022-08-27T04:02:58;100367.13;;;22.79;100.00
37368;BME280;23240;43.210;27.910;2022-08-27T04:05:23;100372.56;;;22.86;100.00
37368;BME280;23240;43.210;27.910;2022-08-27T04:07:48;100369.44;;;22.89;100.00
37368;BME280;23240;43.210;27.910;2022-08-27T04:10:14;100361.41;;;23.00;100.00
37368;BME280;23240;43.210;27.910;2022-08-27T04:12:40;100357.00;;;22.99;100.00
37368;BME280;23240;43.210;27.910;2022-08-27T04:15:06;100359.69;;;23.06;100.00
37368;BME280;23240;43.210;27.910;2022-08-27T04:17:33;100367.84;;;23.19;100.00
37368;BME280;23240;43.210;27.910;2022-08-27T04:19:58;100368.44;;;23.28;100.00
37368;BME280;23240;43.210;27.910;2022-08-27T04:22:24;100370.47;;;23.39;100.00
37368;BME280;23240;43.210;27.910;2022-08-27T04:24:49;100369.00;;;23.43;100.00
37368;BME280;23240;43.210;27.910;2022-08-27T04:27:15;100361.38;;;23.52;100.00
37368;BME280;23240;43.210;27.910;2022-08-27T04:29:40;100368.28;;;23.61;100.00
37368;BME280;23240;43.210;27.910;2022-08-27T04:32:06;100370.38;;;23.66;100.00
37368;BME280;23240;43.210;27.910;2022-08-27T04:34:31;100361.94;;;23.67;100.00
37368;BME280;23240;43.210;27.910;2022-08-27T04:36:57;100370.97;;;23.68;100.00
37368;BME280;23240;43.210;27.910;2022-08-27T04:39:23;100360.28;;;23.66;100.00
37368;BME280;23240;43.210;27.910;2022-08-27T04:41:49;100365.91;;;23.71;100.00
37368;BME280;23240;43.210;27.910;2022-08-27T04:44:14;100366.31;;;23.75;100.00
37368;BME280;23240;43.210;27.910;2022-08-27T04:46:39;100369.84;;;23.82;100.00
37368;BME280;23240;43.210;27.910;2022-08-27T04:49:09;100367.75;;;23.84;99.56
37368;BME280;23240;43.210;27.910;2022-08-27T04:51:35;100366.44;;;23.87;99.60
37368;BME280;23240;43.210;27.910;2022-08-27T04:54:01;100370.97;;;23.99;98.67
37368;BME280;23240;43.210;27.910;2022-08-27T04:56:26;100365.03;;;24.02;99.27
37368;BME280;23240;43.210;27.910;2022-08-27T04:58:52;100365.38;;;24.13;98.51
37368;BME280;23240;43.210;27.910;2022-08-27T05:01:21;100372.50;;;24.20;98.05
37368;BME280;23240;43.210;27.910;2022-08-27T05:03:47;100378.19;;;24.19;98.50
37368;BME280;23240;43.210;27.910;2022-08-27T05:06:12;100380.63;;;24.27;97.40
37368;BME280;23240;43.210;27.910;2022-08-27T05:08:38;100377.84;;;24.33;96.55
37368;BME280;23240;43.210;27.910;2022-08-27T05:11:07;100376.59;;;24.36;96.05
37368;BME280;23240;43.210;27.910;2022-08-27T05:13:33;100382.09;;;24.29;96.70
37368;BME280;23240;43.210;27.910;2022-08-27T05:16:01;100378.97;;;24.26;98.42
37368;BME280;23240;43.210;27.910;2022-08-27T05:18:27;100378.69;;;24.34;99.09
37368;BME280;23240;43.210;27.910;2022-08-27T05:20:53;100387.63;;;24.23;100.00
37368;BME280;23240;43.210;27.910;2022-08-27T05:23:18;100385.28;;;24.26;100.00
37368;BME280;23240;43.210;27.910;2022-08-27T05:25:45;100384.66;;;24.24;100.00
37368;BME280;23240;43.210;27.910;2022-08-27T05:28:11;100388.97;;;24.14;100.00
37368;BME280;23240;43.210;27.910;2022-08-27T05:30:38;100386.94;;;24.02;100.00
37368;BME280;23240;43.210;27.910;2022-08-27T05:33:04;100385.94;;;23.97;100.00
37368;BME280;23240;43.210;27.910;2022-08-27T05:35:29;100389.06;;;24.00;100.00
37368;BME280;23240;43.210;27.910;2022-08-27T05:37:56;100389.06;;;24.00;100.00
37368;BME280;23240;43.210;27.910;2022-08-27T05:40:24;100387.44;;;23.93;100.00
37368;BME280;23240;43.210;27.910;2022-08-27T05:42:49;100389.31;;;23.92;100.00
37368;BME280;23240;43.210;27.910;2022-08-27T05:45:15;100395.44;;;23.94;100.00
37368;BME280;23240;43.210;27.910;2022-08-27T05:47:41;100391.88;;;23.94;100.00
37368;BME280;23240;43.210;27.910;2022-08-27T05:50:06;100397.50;;;23.99;100.00
37368;BME280;23240;43.210;27.910;2022-08-27T05:52:32;100398.06;;;24.07;100.00
37368;BME280;23240;43.210;27.910;2022-08-27T05:54:58;100398.59;;;24.23;100.00
37368;BME280;23240;43.210;27.910;2022-08-27T05:57:23;100396.19;;;24.33;100.00
37368;BME280;23240;43.210;27.910;2022-08-27T05:59:49;100398.81;;;24.46;99.86
37368;BME280;23240;43.210;27.910;2022-08-27T06:02:32;100410.13;;;24.56;99.17
37368;BME280;23240;43.210;27.910;2022-08-27T06:05:01;100412.53;;;24.65;99.21
37368;BME280;23240;43.210;27.910;2022-08-27T06:07:28;100411.81;;;24.76;98.60
37368;BME280;23240;43.210;27.910;2022-08-27T06:09:53;100410.81;;;24.88;97.85
37368;BME280;23240;43.210;27.910;2022-08-27T06:12:19;100415.03;;;24.91;96.90
37368;BME280;23240;43.210;27.910;2022-08-27T06:14:44;100419.00;;;24.95;97.96
37368;BME280;23240;43.210;27.910;2022-08-27T06:17:09;100416.41;;;25.19;97.14
37368;BME280;23240;43.210;27.910;2022-08-27T06:19:35;100420.88;;;25.50;94.71
37368;BME280;23240;43.210;27.910;2022-08-27T06:22:00;100423.81;;;25.85;90.82
37368;BME280;23240;43.210;27.910;2022-08-27T06:24:26;100420.88;;;25.98;89.29
37368;BME280;23240;43.210;27.910;2022-08-27T06:26:52;100423.66;;;26.22;85.67
37368;BME280;23240;43.210;27.910;2022-08-27T06:29:18;100421.22;;;26.44;83.81
37368;BME280;23240;43.210;27.910;2022-08-27T06:31:43;100428.75;;;26.72;81.96
37368;BME280;23240;43.210;27.910;2022-08-27T06:34:09;100422.31;;;26.89;80.08
37368;BME280;23240;43.210;27.910;2022-08-27T06:36:35;100424.91;;;26.96;79.20
37368;BME280;23240;43.210;27.910;2022-08-27T06:39:01;100430.63;;;27.30;77.59
37368;BME280;23240;43.210;27.910;2022-08-27T06:41:27;100428.06;;;27.40;75.87
37368;BME280;23240;43.210;27.910;2022-08-27T06:43:53;100428.28;;;27.50;73.41
37368;BME280;23240;43.210;27.910;2022-08-27T06:46:19;100429.91;;;27.63;74.26
37368;BME280;23240;43.210;27.910;2022-08-27T06:48:46;100431.13;;;28.12;71.78
37368;BME280;23240;43.210;27.910;2022-08-27T06:51:16;100434.03;;;28.51;69.42
37368;BME280;23240;43.210;27.910;2022-08-27T06:53:43;100431.19;;;28.63;68.25
37368;BME280;23240;43.210;27.910;2022-08-27T06:56:09;100436.03;;;28.73;68.20
37368;BME280;23240;43.210;27.910;2022-08-27T06:58:35;100435.56;;;28.81;65.92
37368;BME280;23240;43.210;27.910;2022-08-27T07:01:00;100437.78;;;28.45;68.10
37368;BME280;23240;43.210;27.910;2022-08-27T07:03:26;100450.31;;;28.36;69.12
37368;BME280;23240;43.210;27.910;2022-08-27T07:05:51;100439.91;;;28.26;70.11
37368;BME280;23240;43.210;27.910;2022-08-27T07:08:16;100446.56;;;28.13;70.75
37368;BME280;23240;43.210;27.910;2022-08-27T07:10:43;100448.41;;;28.08;70.60
37368;BME280;23240;43.210;27.910;2022-08-27T07:13:08;100440.22;;;28.13;70.17
37368;BME280;23240;43.210;27.910;2022-08-27T07:15:36;100453.06;;;28.07;70.28
37368;BME280;23240;43.210;27.910;2022-08-27T07:18:02;100453.94;;;28.25;69.57
37368;BME280;23240;43.210;27.910;2022-08-27T07:20:27;100451.06;;;28.82;66.05
37368;BME280;23240;43.210;27.910;2022-08-27T07:22:53;100446.59;;;29.36;60.15
37368;BME280;23240;43.210;27.910;2022-08-27T07:25:18;100445.50;;;30.08;58.26
37368;BME280;23240;43.210;27.910;2022-08-27T07:27:45;100437.84;;;30.85;52.84
37368;BME280;23240;43.210;27.910;2022-08-27T07:30:11;100438.53;;;31.07;49.89
37368;BME280;23240;43.210;27.910;2022-08-27T07:32:37;100437.69;;;31.59;48.83
37368;BME280;23240;43.210;27.910;2022-08-27T07:35:02;100435.31;;;31.83;46.78
37368;BME280;23240;43.210;27.910;2022-08-27T07:37:28;100437.19;;;31.72;44.18
37368;BME280;23240;43.210;27.910;2022-08-27T07:39:53;100435.31;;;31.88;44.32
37368;BME280;23240;43.210;27.910;2022-08-27T07:42:19;100434.19;;;31.89;43.22
37368;BME280;23240;43.210;27.910;2022-08-27T07:45:03;100428.97;;;32.13;42.57
37368;BME280;23240;43.210;27.910;2022-08-27T07:47:28;100432.63;;;32.55;41.41
37368;BME280;23240;43.210;27.910;2022-08-27T07:49:54;100439.25;;;32.48;39.54
37368;BME280;23240;43.210;27.910;2022-08-27T07:52:21;100432.59;;;32.60;40.30
37368;BME280;23240;43.210;27.910;2022-08-27T07:54:46;100431.41;;;33.02;40.18
37368;BME280;23240;43.210;27.910;2022-08-27T07:57:12;100423.50;;;33.39;38.42
37368;BME280;23240;43.210;27.910;2022-08-27T07:59:38;100422.16;;;33.37;38.22
37368;BME280;23240;43.210;27.910;2022-08-27T08:02:03;100429.66;;;33.26;38.28
37368;BME280;23240;43.210;27.910;2022-08-27T08:04:28;100438.53;;;33.33;38.83
37368;BME280;23240;43.210;27.910;2022-08-27T08:06:54;100429.06;;;33.39;38.48
37368;BME280;23240;43.210;27.910;2022-08-27T08:09:20;100430.97;;;33.54;38.22
37368;BME280;23240;43.210;27.910;2022-08-27T08:11:47;100422.31;;;33.66;37.08
37368;BME280;23240;43.210;27.910;2022-08-27T08:14:13;100423.38;;;33.70;37.06
37368;BME280;23240;43.210;27.910;2022-08-27T08:16:38;100436.34;;;33.85;35.86
37368;BME280;23240;43.210;27.910;2022-08-27T08:19:04;100428.00;;;33.95;35.53
37368;BME280;23240;43.210;27.910;2022-08-27T08:21:29;100424.69;;;33.83;35.97
37368;BME280;23240;43.210;27.910;2022-08-27T08:23:54;100424.59;;;34.03;35.56
37368;BME280;23240;43.210;27.910;2022-08-27T08:26:20;100421.69;;;34.18;34.71
37368;BME280;23240;43.210;27.910;2022-08-27T08:28:45;100422.06;;;34.41;34.42
37368;BME280;23240;43.210;27.910;2022-08-27T08:31:11;100426.63;;;34.61;34.65
37368;BME280;23240;43.210;27.910;2022-08-27T08:33:37;100421.31;;;34.64;33.70
37368;BME280;23240;43.210;27.910;2022-08-27T08:36:04;100421.63;;;34.63;32.72
37368;BME280;23240;43.210;27.910;2022-08-27T08:38:29;100415.44;;;34.66;32.56
37368;BME280;23240;43.210;27.910;2022-08-27T08:40:55;100424.00;;;34.45;32.80
37368;BME280;23240;43.210;27.910;2022-08-27T08:45:45;100426.19;;;34.14;33.18
37368;BME280;23240;43.210;27.910;2022-08-27T08:48:13;100427.38;;;34.37;32.84
37368;BME280;23240;43.210;27.910;2022-08-27T08:53:13;100427.69;;;33.91;34.12
37368;BME280;23240;43.210;27.910;2022-08-27T08:55:46;100426.28;;;33.94;34.06
37368;BME280;23240;43.210;27.910;2022-08-27T09:00:44;100428.00;;;33.85;35.01
37368;BME280;23240;43.210;27.910;2022-08-27T09:03:11;100435.03;;;33.72;35.62
37368;BME280;23240;43.210;27.910;2022-08-27T09:05:38;100432.81;;;33.74;39.18
37368;BME280;23240;43.210;27.910;2022-08-27T09:08:10;100434.34;;;33.51;40.19
37368;BME280;23240;43.210;27.910;2022-08-27T09:10:41;100428.63;;;33.12;39.49
37368;BME280;23240;43.210;27.910;2022-08-27T09:13:12;100436.72;;;32.78;42.32
37368;BME280;23240;43.210;27.910;2022-08-27T09:15:42;100438.16;;;32.65;43.73
37368;BME280;23240;43.210;27.910;2022-08-27T09:18:09;100442.84;;;32.54;44.99
37368;BME280;23240;43.210;27.910;2022-08-27T09:20:36;100443.94;;;32.17;45.51
37368;BME280;23240;43.210;27.910;2022-08-27T09:25:37;100453.88;;;31.98;47.02
37368;BME280;23240;43.210;27.910;2022-08-27T09:28:46;100443.28;;;31.74;47.11
37368;BME280;23240;43.210;27.910;2022-08-27T09:31:12;100438.25;;;31.61;45.68
37368;BME280;23240;43.210;27.910;2022-08-27T09:33:39;100439.84;;;31.42;48.99
37368;BME280;23240;43.210;27.910;2022-08-27T09:36:06;100436.53;;;31.45;49.43
37368;BME280;23240;43.210;27.910;2022-08-27T09:38:33;100433.72;;;31.35;50.69
37368;BME280;23240;43.210;27.910;2022-08-27T09:41:06;100440.00;;;31.20;52.38
37368;BME280;23240;43.210;27.910;2022-08-27T09:43:32;100434.75;;;31.23;52.79
37368;BME280;23240;43.210;27.910;2022-08-27T09:45:59;100442.50;;;31.21;47.52
37368;BME280;23240;43.210;27.910;2022-08-27T09:48:26;100446.56;;;31.09;47.94
37368;BME280;23240;43.210;27.910;2022-08-27T09:50:53;100442.34;;;30.96;48.96
37368;BME280;23240;43.210;27.910;2022-08-27T09:55:52;100437.78;;;30.75;48.97
37368;BME280;23240;43.210;27.910;2022-08-27T09:58:19;100435.16;;;30.90;48.84
37368;BME280;23240;43.210;27.910;2022-08-27T10:00:46;100436.91;;;31.11;46.08
37368;BME280;23240;43.210;27.910;2022-08-27T10:03:12;100434.63;;;30.98;47.34
37368;BME280;23240;43.210;27.910;2022-08-27T10:08:09;100436.91;;;31.11;46.83
37368;BME280;23240;43.210;27.910;2022-08-27T10:13:12;100439.91;;;31.00;45.17
37368;BME280;23240;43.210;27.910;2022-08-27T10:15:43;100436.91;;;31.11;43.93
37368;BME280;23240;43.210;27.910;2022-08-27T10:18:13;100430.69;;;31.36;42.06
37368;BME280;23240;43.210;27.910;2022-08-27T10:23:41;100436.38;;;31.14;40.11
37368;BME280;23240;43.210;27.910;2022-08-27T10:26:30;100424.53;;;31.24;38.10
37368;BME280;23240;43.210;27.910;2022-08-27T10:31:34;100428.22;;;31.40;38.49
37368;BME280;23240;43.210;27.910;2022-08-27T10:41:34;100433.28;;;31.58;37.20
37368;BME280;23240;43.210;27.910;2022-08-27T10:54:31;100430.38;;;31.33;38.78
37368;BME280;23240;43.210;27.910;2022-08-27T10:57:02;100419.41;;;31.48;39.37
37368;BME280;23240;43.210;27.910;2022-08-27T10:59:33;100417.19;;;31.50;38.75
37368;BME280;23240;43.210;27.910;2022-08-27T11:04:36;100419.69;;;31.67;38.93
37368;BME280;23240;43.210;27.910;2022-08-27T11:07:14;100416.69;;;31.79;38.59
37368;BME280;23240;43.210;27.910;2022-08-27T11:12:07;100423.13;;;31.94;37.63
37368;BME280;23240;43.210;27.910;2022-08-27T11:14:42;100415.63;;;31.90;37.76
37368;BME280;23240;43.210;27.910;2022-08-27T11:17:12;100416.75;;;31.94;37.93
37368;BME280;23240;43.210;27.910;2022-08-27T11:22:12;100421.09;;;31.59;37.63
37368;BME280;23240;43.210;27.910;2022-08-27T11:24:42;100413.00;;;31.47;37.44
37368;BME280;23240;43.210;27.910;2022-08-27T11:27:11;100414.94;;;31.47;37.41
37368;BME280;23240;43.210;27.910;2022-08-27T11:29:45;100417.72;;;31.52;37.53
37368;BME280;23240;43.210;27.910;2022-08-27T11:34:58;100411.09;;;31.53;37.60
37368;BME280;23240;43.210;27.910;2022-08-27T11:39:58;100417.19;;;31.55;38.73
37368;BME280;23240;43.210;27.910;2022-08-27T11:42:36;100418.81;;;31.46;38.20
37368;BME280;23240;43.210;27.910;2022-08-27T11:45:07;100414.44;;;31.55;38.11
37368;BME280;23240;43.210;27.910;2022-08-27T11:47:35;100417.19;;;31.50;38.78
37368;BME280;23240;43.210;27.910;2022-08-27T11:50:03;100415.25;;;31.51;39.32
37368;BME280;23240;43.210;27.910;2022-08-27T11:52:36;100419.44;;;31.58;40.09
37368;BME280;23240;43.210;27.910;2022-08-27T11:57:49;100419.97;;;31.55;40.22
37368;BME280;23240;43.210;27.910;2022-08-27T12:08:10;100428.81;;;29.71;73.68
37368;BME280;23240;43.210;27.910;2022-08-27T12:13:31;100419.53;;;29.55;76.28
37368;BME280;23240;43.210;27.910;2022-08-27T12:18:52;100430.09;;;29.63;72.50
37368;BME280;23240;43.210;27.910;2022-08-27T12:28:40;100433.94;;;29.62;71.70
37368;BME280;23240;43.210;27.910;2022-08-27T12:31:05;100423.50;;;29.64;75.25
37368;BME280;23240;43.210;27.910;2022-08-27T12:33:32;100435.06;;;29.61;74.74
37368;BME280;23240;43.210;27.910;2022-08-27T12:36:06;100429.03;;;29.64;73.15
37368;BME280;23240;43.210;27.910;2022-08-27T12:38:39;100427.94;;;29.65;72.52
37368;BME280;23240;43.210;27.910;2022-08-27T12:41:06;100428.81;;;29.71;67.29
37368;BME280;23240;43.210;27.910;2022-08-27T12:43:36;100429.41;;;29.78;63.81
37368;BME280;23240;43.210;27.910;2022-08-27T12:46:15;100429.13;;;29.75;65.85
37368;BME280;23240;43.210;27.910;2022-08-27T12:48:42;100431.31;;;29.73;66.39
37368;BME280;23240;43.210;27.910;2022-08-27T12:53:48;100434.00;;;29.67;64.97
37368;BME280;23240;43.210;27.910;2022-08-27T13:04:00;100454.06;;;29.19;87.57
37368;BME280;23240;43.210;27.910;2022-08-27T13:06:35;100462.41;;;29.02;89.30
37368;BME280;23240;43.210;27.910;2022-08-27T13:09:07;100453.63;;;28.72;91.84
37368;BME280;23240;43.210;27.910;2022-08-27T13:11:43;100453.38;;;28.56;96.50
37368;BME280;23240;43.210;27.910;2022-08-27T13:14:19;100458.41;;;28.42;98.59
37368;BME280;23240;43.210;27.910;2022-08-27T13:16:48;100459.41;;;28.36;100.00
37368;BME280;23240;43.210;27.910;2022-08-27T13:19:18;100449.81;;;28.39;100.00
37368;BME280;23240;43.210;27.910;2022-08-27T13:21:46;100448.81;;;28.45;100.00
37368;BME280;23240;43.210;27.910;2022-08-27T13:24:12;100458.31;;;28.54;100.00
37368;BME280;23240;43.210;27.910;2022-08-27T13:26:38;100458.50;;;28.64;98.32
37368;BME280;23240;43.210;27.910;2022-08-27T13:29:04;100452.72;;;28.66;98.05
37368;BME280;23240;43.210;27.910;2022-08-27T13:31:30;100459.66;;;28.68;98.63
37368;BME280;23240;43.210;27.910;2022-08-27T13:33:56;100469.34;;;28.71;99.79
37368;BME280;23240;43.210;27.910;2022-08-27T13:36:33;100466.00;;;28.69;99.40
37368;BME280;23240;43.210;27.910;2022-08-27T13:39:03;100472.09;;;28.71;99.25
37368;BME280;23240;43.210;27.910;2022-08-27T13:41:31;100477.69;;;28.59;97.90
37368;BME280;23240;43.210;27.910;2022-08-27T13:43:57;100474.69;;;28.44;99.23
37368;BME280;23240;43.210;27.910;2022-08-27T13:46:29;100474.19;;;28.47;100.00
37368;BME280;23240;43.210;27.910;2022-08-27T13:48:55;100470.34;;;28.48;100.00
37368;BME280;23240;43.210;27.910;2022-08-27T13:51:24;100466.34;;;28.56;100.00
37368;BME280;23240;43.210;27.910;2022-08-27T13:53:50;100471.59;;;28.57;100.00
37368;BME280;23240;43.210;27.910;2022-08-27T13:56:36;100463.31;;;28.57;100.00
37368;BME280;23240;43.210;27.910;2022-08-27T13:59:44;100472.59;;;28.51;100.00
37368;BME280;23240;43.210;27.910;2022-08-27T14:01:55;100472.03;;;28.49;100.00
37368;BME280;23240;43.210;27.910;2022-08-27T14:04:22;100474.53;;;28.34;100.00
37368;BME280;23240;43.210;27.910;2022-08-27T14:06:47;100478.31;;;28.33;100.00
37368;BME280;23240;43.210;27.910;2022-08-27T14:11:42;100484.19;;;28.36;100.00